Terminal Aerodrome Forecast
Issued by NWS Grand Forks, ND

Home | Current Version | Previous Version | Text Only | Print | Product List | Glossary Off
Versions: 1 2 3 4 5 6 7 8 9 10 11 12 13 14 15 16

000
FTUS43 KFGF 221125
TAFGFK
TAF
KGFK 221125Z 2212/2312 25008KT P6SM BKN100
     FM221800 27017KT P6SM FEW150
     FM230700 29012KT P6SM BKN060
     FM230900 30013KT P6SM BKN030=

USA.gov is the U.S. government's official web portal to all federal, state and local government web resources and services.